sensor_id;sensor_type;location;lat;lon;timestamp;P1;durP1;ratioP1;P2;durP2;ratioP2
42586;SDS011;28216;53.362;-6.288;2022-11-15T00:00:46;6.53;;;1.70;;
42586;SDS011;28216;53.362;-6.288;2022-11-15T00:03:19;5.70;;;1.40;;
42586;SDS011;28216;53.362;-6.288;2022-11-15T00:05:47;2.30;;;0.95;;
42586;SDS011;28216;53.362;-6.288;2022-11-15T00:08:12;3.67;;;1.00;;
42586;SDS011;28216;53.362;-6.288;2022-11-15T00:10:38;5.72;;;1.50;;
42586;SDS011;28216;53.362;-6.288;2022-11-15T00:13:04;3.78;;;1.10;;
42586;SDS011;28216;53.362;-6.288;2022-11-15T00:15:38;7.20;;;1.00;;
42586;SDS011;28216;53.362;-6.288;2022-11-15T00:18:05;4.75;;;1.30;;
42586;SDS011;28216;53.362;-6.288;2022-11-15T00:20:33;4.57;;;1.08;;
42586;SDS011;28216;53.362;-6.288;2022-11-15T00:22:59;2.95;;;0.75;;
42586;SDS011;28216;53.362;-6.288;2022-11-15T00:25:24;2.40;;;1.08;;
42586;SDS011;28216;53.362;-6.288;2022-11-15T00:27:50;4.28;;;1.10;;
42586;SDS011;28216;53.362;-6.288;2022-11-15T00:30:19;3.10;;;0.90;;
42586;SDS011;28216;53.362;-6.288;2022-11-15T00:32:45;3.65;;;0.93;;
42586;SDS011;28216;53.362;-6.288;2022-11-15T00:35:10;2.20;;;0.57;;
42586;SDS011;28216;53.362;-6.288;2022-11-15T00:37:36;3.97;;;0.93;;
42586;SDS011;28216;53.362;-6.288;2022-11-15T00:40:01;2.40;;;0.90;;
42586;SDS011;28216;53.362;-6.288;2022-11-15T00:42:27;2.78;;;0.60;;
42586;SDS011;28216;53.362;-6.288;2022-11-15T00:44:52;1.88;;;0.63;;
42586;SDS011;28216;53.362;-6.288;2022-11-15T00:47:18;2.08;;;0.65;;
42586;SDS011;28216;53.362;-6.288;2022-11-15T00:49:43;2.08;;;0.70;;
42586;SDS011;28216;53.362;-6.288;2022-11-15T00:52:09;1.52;;;0.52;;
42586;SDS011;28216;53.362;-6.288;2022-11-15T00:54:34;2.70;;;0.70;;
42586;SDS011;28216;53.362;-6.288;2022-11-15T00:57:00;2.88;;;0.68;;
42586;SDS011;28216;53.362;-6.288;2022-11-15T00:59:25;2.63;;;1.05;;
42586;SDS011;28216;53.362;-6.288;2022-11-15T01:01:50;1.40;;;0.70;;
42586;SDS011;28216;53.362;-6.288;2022-11-15T01:04:16;4.75;;;2.03;;
42586;SDS011;28216;53.362;-6.288;2022-11-15T01:06:41;5.40;;;3.92;;
42586;SDS011;28216;53.362;-6.288;2022-11-15T01:09:07;3.40;;;1.70;;
42586;SDS011;28216;53.362;-6.288;2022-11-15T01:11:32;2.08;;;1.10;;
42586;SDS011;28216;53.362;-6.288;2022-11-15T01:13:58;2.40;;;0.90;;
42586;SDS011;28216;53.362;-6.288;2022-11-15T01:16:23;1.73;;;1.30;;
42586;SDS011;28216;53.362;-6.288;2022-11-15T01:18:50;1.80;;;0.70;;
42586;SDS011;28216;53.362;-6.288;2022-11-15T01:21:17;2.28;;;1.02;;
42586;SDS011;28216;53.362;-6.288;2022-11-15T01:23:44;1.60;;;1.45;;
42586;SDS011;28216;53.362;-6.288;2022-11-15T01:26:10;3.38;;;1.10;;
42586;SDS011;28216;53.362;-6.288;2022-11-15T01:28:39;1.38;;;0.90;;
42586;SDS011;28216;53.362;-6.288;2022-11-15T01:31:07;2.45;;;0.70;;
42586;SDS011;28216;53.362;-6.288;2022-11-15T01:33:37;1.80;;;0.70;;
42586;SDS011;28216;53.362;-6.288;2022-11-15T01:36:21;1.15;;;0.50;;
42586;SDS011;28216;53.362;-6.288;2022-11-15T01:38:54;0.85;;;0.50;;
42586;SDS011;28216;53.362;-6.288;2022-11-15T01:41:22;1.30;;;0.50;;
42586;SDS011;28216;53.362;-6.288;2022-11-15T01:43:53;0.80;;;0.30;;
42586;SDS011;28216;53.362;-6.288;2022-11-15T01:46:46;1.08;;;0.60;;
42586;SDS011;28216;53.362;-6.288;2022-11-15T01:49:14;2.55;;;0.70;;
42586;SDS011;28216;53.362;-6.288;2022-11-15T01:51:42;2.05;;;0.50;;
42586;SDS011;28216;53.362;-6.288;2022-11-15T01:54:10;1.50;;;0.60;;
42586;SDS011;28216;53.362;-6.288;2022-11-15T01:56:45;2.55;;;0.60;;
42586;SDS011;28216;53.362;-6.288;2022-11-15T01:59:15;0.82;;;0.60;;
42586;SDS011;28216;53.362;-6.288;2022-11-15T02:01:40;0.90;;;0.60;;
42586;SDS011;28216;53.362;-6.288;2022-11-15T02:04:12;6.43;;;1.40;;
42586;SDS011;28216;53.362;-6.288;2022-11-15T02:06:40;3.03;;;0.57;;
42586;SDS011;28216;53.362;-6.288;2022-11-15T02:09:07;3.55;;;0.60;;
42586;SDS011;28216;53.362;-6.288;2022-11-15T02:11:33;4.03;;;1.00;;
42586;SDS011;28216;53.362;-6.288;2022-11-15T02:13:58;3.00;;;0.70;;
42586;SDS011;28216;53.362;-6.288;2022-11-15T02:30:47;5.63;;;1.10;;
42586;SDS011;28216;53.362;-6.288;2022-11-15T02:40:04;8.25;;;1.60;;
42586;SDS011;28216;53.362;-6.288;2022-11-15T02:42:26;4.32;;;1.08;;
42586;SDS011;28216;53.362;-6.288;2022-11-15T02:45:17;8.15;;;1.40;;
42586;SDS011;28216;53.362;-6.288;2022-11-15T02:47:50;7.97;;;1.40;;
42586;SDS011;28216;53.362;-6.288;2022-11-15T02:50:20;5.97;;;1.30;;
42586;SDS011;28216;53.362;-6.288;2022-11-15T02:52:49;7.75;;;1.40;;
42586;SDS011;28216;53.362;-6.288;2022-11-15T02:55:35;8.13;;;1.63;;
42586;SDS011;28216;53.362;-6.288;2022-11-15T03:01:02;5.32;;;1.30;;
42586;SDS011;28216;53.362;-6.288;2022-11-15T03:03:49;8.93;;;1.73;;
42586;SDS011;28216;53.362;-6.288;2022-11-15T03:06:59;5.88;;;1.30;;
42586;SDS011;28216;53.362;-6.288;2022-11-15T03:12:24;7.25;;;1.50;;
42586;SDS011;28216;53.362;-6.288;2022-11-15T03:17:41;5.93;;;1.55;;
42586;SDS011;28216;53.362;-6.288;2022-11-15T03:20:16;6.80;;;1.48;;
42586;SDS011;28216;53.362;-6.288;2022-11-15T03:22:44;8.77;;;1.55;;
42586;SDS011;28216;53.362;-6.288;2022-11-15T03:25:13;8.13;;;1.40;;
42586;SDS011;28216;53.362;-6.288;2022-11-15T03:27:46;12.65;;;1.70;;
42586;SDS011;28216;53.362;-6.288;2022-11-15T03:30:15;11.73;;;1.80;;
42586;SDS011;28216;53.362;-6.288;2022-11-15T03:32:44;9.25;;;1.83;;
42586;SDS011;28216;53.362;-6.288;2022-11-15T03:35:22;12.18;;;2.03;;
42586;SDS011;28216;53.362;-6.288;2022-11-15T03:38:07;10.75;;;1.95;;
42586;SDS011;28216;53.362;-6.288;2022-11-15T03:46:17;14.50;;;1.95;;
42586;SDS011;28216;53.362;-6.288;2022-11-15T03:48:53;13.93;;;2.35;;
42586;SDS011;28216;53.362;-6.288;2022-11-15T03:53:50;13.55;;;1.92;;
42586;SDS011;28216;53.362;-6.288;2022-11-15T03:56:15;11.45;;;2.03;;
42586;SDS011;28216;53.362;-6.288;2022-11-15T03:58:41;15.43;;;2.38;;
42586;SDS011;28216;53.362;-6.288;2022-11-15T04:01:06;8.02;;;2.10;;
42586;SDS011;28216;53.362;-6.288;2022-11-15T04:03:32;10.25;;;1.88;;
42586;SDS011;28216;53.362;-6.288;2022-11-15T04:05:57;13.40;;;2.08;;
42586;SDS011;28216;53.362;-6.288;2022-11-15T04:08:23;7.20;;;1.92;;
42586;SDS011;28216;53.362;-6.288;2022-11-15T04:10:48;15.50;;;3.05;;
42586;SDS011;28216;53.362;-6.288;2022-11-15T04:13:14;16.15;;;2.13;;
42586;SDS011;28216;53.362;-6.288;2022-11-15T04:15:40;11.23;;;2.10;;
42586;SDS011;28216;53.362;-6.288;2022-11-15T04:18:05;11.13;;;2.10;;
42586;SDS011;28216;53.362;-6.288;2022-11-15T04:20:31;11.52;;;2.35;;
42586;SDS011;28216;53.362;-6.288;2022-11-15T04:23:24;13.30;;;2.22;;
42586;SDS011;28216;53.362;-6.288;2022-11-15T04:26:12;13.57;;;1.90;;
42586;SDS011;28216;53.362;-6.288;2022-11-15T04:28:43;12.32;;;2.10;;
42586;SDS011;28216;53.362;-6.288;2022-11-15T04:31:27;12.15;;;2.03;;
42586;SDS011;28216;53.362;-6.288;2022-11-15T04:33:53;13.18;;;2.30;;
42586;SDS011;28216;53.362;-6.288;2022-11-15T04:36:19;10.98;;;1.70;;
42586;SDS011;28216;53.362;-6.288;2022-11-15T04:39:04;13.80;;;2.17;;
42586;SDS011;28216;53.362;-6.288;2022-11-15T04:41:29;15.57;;;2.13;;
42586;SDS011;28216;53.362;-6.288;2022-11-15T04:43:55;16.98;;;2.20;;
42586;SDS011;28216;53.362;-6.288;2022-11-15T04:46:21;14.07;;;2.10;;
42586;SDS011;28216;53.362;-6.288;2022-11-15T04:48:47;14.02;;;2.60;;
42586;SDS011;28216;53.362;-6.288;2022-11-15T04:51:13;11.65;;;2.20;;
42586;SDS011;28216;53.362;-6.288;2022-11-15T04:53:38;17.73;;;2.22;;
42586;SDS011;28216;53.362;-6.288;2022-11-15T04:56:04;18.23;;;2.60;;
42586;SDS011;28216;53.362;-6.288;2022-11-15T04:58:29;15.45;;;2.42;;
42586;SDS011;28216;53.362;-6.288;2022-11-15T05:00:55;14.60;;;2.30;;
42586;SDS011;28216;53.362;-6.288;2022-11-15T05:03:20;15.25;;;2.55;;
42586;SDS011;28216;53.362;-6.288;2022-11-15T05:06:04;14.70;;;2.47;;
42586;SDS011;28216;53.362;-6.288;2022-11-15T05:08:31;11.80;;;2.20;;
42586;SDS011;28216;53.362;-6.288;2022-11-15T05:10:56;11.55;;;2.00;;
42586;SDS011;28216;53.362;-6.288;2022-11-15T05:13:22;9.80;;;1.95;;
42586;SDS011;28216;53.362;-6.288;2022-11-15T05:15:47;14.90;;;2.30;;
42586;SDS011;28216;53.362;-6.288;2022-11-15T05:18:13;13.25;;;2.20;;
42586;SDS011;28216;53.362;-6.288;2022-11-15T05:20:38;12.90;;;2.78;;
42586;SDS011;28216;53.362;-6.288;2022-11-15T05:23:04;12.30;;;2.30;;
42586;SDS011;28216;53.362;-6.288;2022-11-15T05:25:29;15.75;;;2.17;;
42586;SDS011;28216;53.362;-6.288;2022-11-15T05:27:55;11.93;;;2.63;;
42586;SDS011;28216;53.362;-6.288;2022-11-15T05:30:20;14.30;;;2.13;;
42586;SDS011;28216;53.362;-6.288;2022-11-15T05:32:46;15.65;;;2.67;;
42586;SDS011;28216;53.362;-6.288;2022-11-15T05:35:13;12.20;;;2.42;;
42586;SDS011;28216;53.362;-6.288;2022-11-15T05:37:45;18.98;;;2.50;;
42586;SDS011;28216;53.362;-6.288;2022-11-15T05:40:11;13.63;;;2.38;;
42586;SDS011;28216;53.362;-6.288;2022-11-15T05:42:36;11.70;;;2.08;;
42586;SDS011;28216;53.362;-6.288;2022-11-15T05:45:03;14.32;;;2.13;;
42586;SDS011;28216;53.362;-6.288;2022-11-15T05:47:31;13.27;;;2.00;;
42586;SDS011;28216;53.362;-6.288;2022-11-15T05:50:00;14.52;;;3.45;;
42586;SDS011;28216;53.362;-6.288;2022-11-15T05:52:27;12.23;;;2.13;;
42586;SDS011;28216;53.362;-6.288;2022-11-15T05:54:56;11.98;;;2.53;;
42586;SDS011;28216;53.362;-6.288;2022-11-15T05:57:23;10.85;;;2.30;;
42586;SDS011;28216;53.362;-6.288;2022-11-15T05:59:49;13.20;;;2.60;;
42586;SDS011;28216;53.362;-6.288;2022-11-15T06:02:15;14.38;;;2.85;;
42586;SDS011;28216;53.362;-6.288;2022-11-15T06:04:40;16.88;;;2.60;;
42586;SDS011;28216;53.362;-6.288;2022-11-15T06:07:06;11.75;;;2.70;;
42586;SDS011;28216;53.362;-6.288;2022-11-15T06:09:31;13.32;;;3.03;;
42586;SDS011;28216;53.362;-6.288;2022-11-15T06:11:56;15.70;;;2.83;;
42586;SDS011;28216;53.362;-6.288;2022-11-15T06:14:22;16.85;;;3.25;;
42586;SDS011;28216;53.362;-6.288;2022-11-15T06:16:47;11.52;;;2.50;;
42586;SDS011;28216;53.362;-6.288;2022-11-15T06:19:13;15.48;;;2.75;;
42586;SDS011;28216;53.362;-6.288;2022-11-15T06:21:38;12.20;;;2.50;;
42586;SDS011;28216;53.362;-6.288;2022-11-15T06:24:04;14.63;;;2.63;;
42586;SDS011;28216;53.362;-6.288;2022-11-15T06:26:30;12.60;;;2.50;;
42586;SDS011;28216;53.362;-6.288;2022-11-15T06:28:56;16.58;;;2.67;;
42586;SDS011;28216;53.362;-6.288;2022-11-15T06:31:21;15.43;;;2.60;;
42586;SDS011;28216;53.362;-6.288;2022-11-15T06:33:47;10.70;;;2.22;;
42586;SDS011;28216;53.362;-6.288;2022-11-15T06:36:14;11.48;;;2.40;;
42586;SDS011;28216;53.362;-6.288;2022-11-15T06:38:44;16.63;;;2.40;;
42586;SDS011;28216;53.362;-6.288;2022-11-15T06:41:16;14.13;;;2.80;;
42586;SDS011;28216;53.362;-6.288;2022-11-15T06:43:43;17.15;;;3.08;;
42586;SDS011;28216;53.362;-6.288;2022-11-15T06:46:11;13.20;;;2.92;;
42586;SDS011;28216;53.362;-6.288;2022-11-15T06:48:36;10.13;;;1.98;;
42586;SDS011;28216;53.362;-6.288;2022-11-15T06:51:04;14.98;;;2.33;;
42586;SDS011;28216;53.362;-6.288;2022-11-15T06:53:33;12.77;;;2.30;;
42586;SDS011;28216;53.362;-6.288;2022-11-15T06:55:59;11.52;;;2.47;;
42586;SDS011;28216;53.362;-6.288;2022-11-15T06:58:26;19.35;;;2.55;;
42586;SDS011;28216;53.362;-6.288;2022-11-15T07:00:52;11.40;;;2.38;;
42586;SDS011;28216;53.362;-6.288;2022-11-15T07:03:18;17.42;;;2.80;;
42586;SDS011;28216;53.362;-6.288;2022-11-15T07:05:50;11.95;;;2.30;;
42586;SDS011;28216;53.362;-6.288;2022-11-15T07:08:20;16.08;;;3.13;;
42586;SDS011;28216;53.362;-6.288;2022-11-15T07:10:46;13.80;;;2.70;;
42586;SDS011;28216;53.362;-6.288;2022-11-15T07:13:11;15.48;;;3.00;;
42586;SDS011;28216;53.362;-6.288;2022-11-15T07:15:37;15.32;;;2.42;;
42586;SDS011;28216;53.362;-6.288;2022-11-15T07:18:02;12.18;;;2.28;;
42586;SDS011;28216;53.362;-6.288;2022-11-15T07:20:28;17.05;;;2.53;;
42586;SDS011;28216;53.362;-6.288;2022-11-15T07:23:03;12.75;;;2.45;;
42586;SDS011;28216;53.362;-6.288;2022-11-15T07:25:30;16.48;;;2.90;;
42586;SDS011;28216;53.362;-6.288;2022-11-15T07:27:56;14.88;;;3.88;;
42586;SDS011;28216;53.362;-6.288;2022-11-15T07:30:22;13.27;;;2.75;;
42586;SDS011;28216;53.362;-6.288;2022-11-15T07:32:52;11.65;;;2.58;;
42586;SDS011;28216;53.362;-6.288;2022-11-15T07:35:21;17.90;;;2.80;;
42586;SDS011;28216;53.362;-6.288;2022-11-15T07:38:01;13.75;;;2.13;;
42586;SDS011;28216;53.362;-6.288;2022-11-15T07:40:28;14.65;;;2.40;;
42586;SDS011;28216;53.362;-6.288;2022-11-15T07:43:00;14.40;;;2.40;;
42586;SDS011;28216;53.362;-6.288;2022-11-15T07:45:28;13.93;;;2.25;;
42586;SDS011;28216;53.362;-6.288;2022-11-15T07:47:54;10.35;;;2.10;;
42586;SDS011;28216;53.362;-6.288;2022-11-15T07:50:24;11.77;;;2.28;;
42586;SDS011;28216;53.362;-6.288;2022-11-15T07:52:59;14.20;;;2.83;;
42586;SDS011;28216;53.362;-6.288;2022-11-15T07:55:25;15.95;;;3.75;;
42586;SDS011;28216;53.362;-6.288;2022-11-15T07:57:59;18.85;;;3.00;;
42586;SDS011;28216;53.362;-6.288;2022-11-15T08:00:26;16.13;;;2.65;;
42586;SDS011;28216;53.362;-6.288;2022-11-15T08:02:52;11.48;;;2.63;;
42586;SDS011;28216;53.362;-6.288;2022-11-15T08:05:17;15.07;;;2.60;;
42586;SDS011;28216;53.362;-6.288;2022-11-15T08:07:43;13.93;;;2.67;;
42586;SDS011;28216;53.362;-6.288;2022-11-15T08:10:08;16.33;;;2.78;;
42586;SDS011;28216;53.362;-6.288;2022-11-15T08:12:34;18.83;;;2.63;;
42586;SDS011;28216;53.362;-6.288;2022-11-15T08:14:59;15.10;;;2.70;;
42586;SDS011;28216;53.362;-6.288;2022-11-15T08:17:25;15.35;;;3.58;;
42586;SDS011;28216;53.362;-6.288;2022-11-15T08:19:51;13.90;;;3.22;;
42586;SDS011;28216;53.362;-6.288;2022-11-15T08:22:17;15.60;;;2.63;;
42586;SDS011;28216;53.362;-6.288;2022-11-15T08:24:43;12.30;;;2.33;;
42586;SDS011;28216;53.362;-6.288;2022-11-15T08:27:09;16.02;;;2.58;;
42586;SDS011;28216;53.362;-6.288;2022-11-15T08:29:40;17.42;;;2.65;;
42586;SDS011;28216;53.362;-6.288;2022-11-15T08:32:09;19.55;;;2.75;;
42586;SDS011;28216;53.362;-6.288;2022-11-15T08:34:38;13.80;;;2.60;;
42586;SDS011;28216;53.362;-6.288;2022-11-15T08:37:04;13.27;;;2.72;;
42586;SDS011;28216;53.362;-6.288;2022-11-15T08:39:32;17.00;;;2.80;;
42586;SDS011;28216;53.362;-6.288;2022-11-15T08:41:57;12.85;;;2.13;;
42586;SDS011;28216;53.362;-6.288;2022-11-15T08:44:23;17.33;;;2.65;;
42586;SDS011;28216;53.362;-6.288;2022-11-15T08:46:49;12.85;;;2.97;;
42586;SDS011;28216;53.362;-6.288;2022-11-15T08:49:15;15.32;;;3.08;;
42586;SDS011;28216;53.362;-6.288;2022-11-15T08:51:40;14.40;;;3.22;;
42586;SDS011;28216;53.362;-6.288;2022-11-15T08:54:06;11.93;;;2.30;;
42586;SDS011;28216;53.362;-6.288;2022-11-15T08:56:31;14.95;;;2.65;;
42586;SDS011;28216;53.362;-6.288;2022-11-15T08:58:57;10.93;;;2.97;;
42586;SDS011;28216;53.362;-6.288;2022-11-15T09:01:22;15.07;;;2.80;;
42586;SDS011;28216;53.362;-6.288;2022-11-15T09:03:48;15.07;;;2.78;;
42586;SDS011;28216;53.362;-6.288;2022-11-15T09:06:14;11.32;;;2.60;;
42586;SDS011;28216;53.362;-6.288;2022-11-15T09:08:57;17.67;;;3.35;;
42586;SDS011;28216;53.362;-6.288;2022-11-15T09:11:23;11.27;;;2.30;;
42586;SDS011;28216;53.362;-6.288;2022-11-15T09:13:51;15.63;;;2.97;;
42586;SDS011;28216;53.362;-6.288;2022-11-15T09:16:19;12.05;;;2.75;;
42586;SDS011;28216;53.362;-6.288;2022-11-15T09:18:45;14.45;;;2.53;;
42586;SDS011;28216;53.362;-6.288;2022-11-15T09:21:10;18.90;;;2.95;;
42586;SDS011;28216;53.362;-6.288;2022-11-15T09:23:36;16.48;;;3.05;;
42586;SDS011;28216;53.362;-6.288;2022-11-15T09:26:03;18.35;;;2.95;;
42586;SDS011;28216;53.362;-6.288;2022-11-15T09:28:30;16.98;;;3.15;;
42586;SDS011;28216;53.362;-6.288;2022-11-15T09:31:00;13.05;;;2.67;;
42586;SDS011;28216;53.362;-6.288;2022-11-15T09:33:27;14.80;;;2.45;;
42586;SDS011;28216;53.362;-6.288;2022-11-15T09:35:53;15.60;;;2.47;;
42586;SDS011;28216;53.362;-6.288;2022-11-15T09:38:19;11.57;;;2.67;;
42586;SDS011;28216;53.362;-6.288;2022-11-15T09:40:45;13.55;;;2.78;;
42586;SDS011;28216;53.362;-6.288;2022-11-15T09:48:59;17.38;;;3.13;;
42586;SDS011;28216;53.362;-6.288;2022-11-15T09:54:04;13.20;;;2.60;;
42586;SDS011;28216;53.362;-6.288;2022-11-15T09:56:37;18.05;;;3.03;;
42586;SDS011;28216;53.362;-6.288;2022-11-15T10:04:26;13.52;;;2.90;;
42586;SDS011;28216;53.362;-6.288;2022-11-15T10:06:54;13.20;;;2.63;;
42586;SDS011;28216;53.362;-6.288;2022-11-15T10:09:31;13.45;;;2.58;;
42586;SDS011;28216;53.362;-6.288;2022-11-15T10:12:06;13.02;;;3.05;;
42586;SDS011;28216;53.362;-6.288;2022-11-15T10:14:33;15.13;;;2.80;;
42586;SDS011;28216;53.362;-6.288;2022-11-15T10:17:09;11.68;;;2.58;;
42586;SDS011;28216;53.362;-6.288;2022-11-15T10:27:33;16.27;;;2.50;;
42586;SDS011;28216;53.362;-6.288;2022-11-15T10:29:59;15.18;;;2.55;;
42586;SDS011;28216;53.362;-6.288;2022-11-15T10:32:25;14.23;;;2.70;;
42586;SDS011;28216;53.362;-6.288;2022-11-15T10:34:51;17.38;;;2.80;;
42586;SDS011;28216;53.362;-6.288;2022-11-15T10:37:30;12.52;;;2.17;;
42586;SDS011;28216;53.362;-6.288;2022-11-15T10:40:12;12.13;;;2.13;;
42586;SDS011;28216;53.362;-6.288;2022-11-15T10:42:41;16.17;;;2.53;;
42586;SDS011;28216;53.362;-6.288;2022-11-15T10:45:23;11.75;;;2.78;;
42586;SDS011;28216;53.362;-6.288;2022-11-15T10:47:55;13.35;;;2.05;;
42586;SDS011;28216;53.362;-6.288;2022-11-15T10:53:15;15.73;;;2.20;;
42586;SDS011;28216;53.362;-6.288;2022-11-15T10:55:47;12.63;;;2.35;;
42586;SDS011;28216;53.362;-6.288;2022-11-15T11:01:16;11.63;;;2.25;;
42586;SDS011;28216;53.362;-6.288;2022-11-15T11:03:45;15.73;;;2.10;;
42586;SDS011;28216;53.362;-6.288;2022-11-15T11:06:24;12.90;;;2.63;;
42586;SDS011;28216;53.362;-6.288;2022-11-15T11:08:54;13.98;;;2.55;;
42586;SDS011;28216;53.362;-6.288;2022-11-15T11:14:37;14.00;;;2.13;;
42586;SDS011;28216;53.362;-6.288;2022-11-15T11:17:04;11.13;;;2.25;;
42586;SDS011;28216;53.362;-6.288;2022-11-15T11:25:19;10.10;;;2.17;;
42586;SDS011;28216;53.362;-6.288;2022-11-15T11:36:19;9.55;;;2.03;;
42586;SDS011;28216;53.362;-6.288;2022-11-15T11:39:03;13.68;;;2.22;;
42586;SDS011;28216;53.362;-6.288;2022-11-15T11:44:45;9.88;;;2.10;;
42586;SDS011;28216;53.362;-6.288;2022-11-15T11:47:39;14.63;;;2.30;;
42586;SDS011;28216;53.362;-6.288;2022-11-15T11:50:12;13.05;;;2.28;;
42586;SDS011;28216;53.362;-6.288;2022-11-15T11:52:41;14.63;;;2.22;;
42586;SDS011;28216;53.362;-6.288;2022-11-15T11:55:20;16.63;;;2.05;;
42586;SDS011;28216;53.362;-6.288;2022-11-15T12:00:27;17.77;;;2.47;;
42586;SDS011;28216;53.362;-6.288;2022-11-15T12:05:27;17.52;;;2.58;;
42586;SDS011;28216;53.362;-6.288;2022-11-15T12:11:24;11.30;;;2.35;;
42586;SDS011;28216;53.362;-6.288;2022-11-15T12:13:58;11.35;;;2.63;;
42586;SDS011;28216;53.362;-6.288;2022-11-15T12:16:27;11.93;;;2.15;;
42586;SDS011;28216;53.362;-6.288;2022-11-15T12:18:56;11.95;;;2.38;;
42586;SDS011;28216;53.362;-6.288;2022-11-15T12:24:25;15.05;;;2.58;;
42586;SDS011;28216;53.362;-6.288;2022-11-15T12:29:45;9.30;;;2.10;;
42586;SDS011;28216;53.362;-6.288;2022-11-15T12:35:02;12.57;;;2.40;;
42586;SDS011;28216;53.362;-6.288;2022-11-15T12:40:30;9.05;;;1.90;;
42586;SDS011;28216;53.362;-6.288;2022-11-15T12:43:07;11.02;;;2.00;;
42586;SDS011;28216;53.362;-6.288;2022-11-15T12:45:40;8.30;;;1.90;;
42586;SDS011;28216;53.362;-6.288;2022-11-15T12:56:08;9.40;;;2.15;;
42586;SDS011;28216;53.362;-6.288;2022-11-15T13:12:04;9.82;;;1.63;;
42586;SDS011;28216;53.362;-6.288;2022-11-15T13:17:02;13.52;;;2.17;;
42586;SDS011;28216;53.362;-6.288;2022-11-15T13:22:04;7.82;;;2.30;;
42586;SDS011;28216;53.362;-6.288;2022-11-15T13:24:52;10.05;;;1.90;;
42586;SDS011;28216;53.362;-6.288;2022-11-15T13:27:19;8.73;;;1.88;;
42586;SDS011;28216;53.362;-6.288;2022-11-15T13:29:45;5.63;;;1.92;;
42586;SDS011;28216;53.362;-6.288;2022-11-15T13:32:11;10.55;;;1.95;;
42586;SDS011;28216;53.362;-6.288;2022-11-15T13:34:38;7.65;;;1.88;;
42586;SDS011;28216;53.362;-6.288;2022-11-15T13:37:32;8.63;;;1.80;;
42586;SDS011;28216;53.362;-6.288;2022-11-15T13:40:20;11.93;;;1.98;;
42586;SDS011;28216;53.362;-6.288;2022-11-15T13:42:55;9.02;;;1.70;;
42586;SDS011;28216;53.362;-6.288;2022-11-15T13:45:22;6.43;;;1.63;;
42586;SDS011;28216;53.362;-6.288;2022-11-15T13:47:53;5.10;;;1.90;;
42586;SDS011;28216;53.362;-6.288;2022-11-15T13:50:22;6.85;;;1.90;;
42586;SDS011;28216;53.362;-6.288;2022-11-15T13:52:52;13.50;;;2.38;;
42586;SDS011;28216;53.362;-6.288;2022-11-15T13:55:22;12.73;;;2.08;;
42586;SDS011;28216;53.362;-6.288;2022-11-15T13:57:58;6.75;;;1.65;;
42586;SDS011;28216;53.362;-6.288;2022-11-15T14:03:37;8.90;;;2.10;;
42586;SDS011;28216;53.362;-6.288;2022-11-15T14:06:15;7.32;;;1.95;;
42586;SDS011;28216;53.362;-6.288;2022-11-15T14:09:01;8.73;;;1.60;;
42586;SDS011;28216;53.362;-6.288;2022-11-15T14:11:51;9.85;;;1.95;;
42586;SDS011;28216;53.362;-6.288;2022-11-15T14:14:19;8.82;;;1.83;;
42586;SDS011;28216;53.362;-6.288;2022-11-15T14:16:48;4.28;;;1.52;;
42586;SDS011;28216;53.362;-6.288;2022-11-15T14:25:03;8.57;;;1.77;;
42586;SDS011;28216;53.362;-6.288;2022-11-15T14:27:30;15.65;;;1.80;;
42586;SDS011;28216;53.362;-6.288;2022-11-15T14:29:56;7.70;;;2.13;;
42586;SDS011;28216;53.362;-6.288;2022-11-15T14:32:23;9.27;;;1.83;;
42586;SDS011;28216;53.362;-6.288;2022-11-15T14:35:11;11.15;;;1.60;;
42586;SDS011;28216;53.362;-6.288;2022-11-15T14:37:39;7.90;;;1.75;;
42586;SDS011;28216;53.362;-6.288;2022-11-15T14:40:05;6.50;;;1.42;;
42586;SDS011;28216;53.362;-6.288;2022-11-15T14:42:31;7.30;;;1.65;;
42586;SDS011;28216;53.362;-6.288;2022-11-15T14:44:57;7.30;;;2.15;;
42586;SDS011;28216;53.362;-6.288;2022-11-15T14:47:23;9.50;;;2.03;;
42586;SDS011;28216;53.362;-6.288;2022-11-15T14:49:48;7.35;;;1.75;;
42586;SDS011;28216;53.362;-6.288;2022-11-15T14:54:50;8.50;;;1.52;;
42586;SDS011;28216;53.362;-6.288;2022-11-15T14:57:16;6.43;;;1.60;;
42586;SDS011;28216;53.362;-6.288;2022-11-15T14:59:41;7.53;;;1.80;;
42586;SDS011;28216;53.362;-6.288;2022-11-15T15:02:20;9.00;;;2.08;;
42586;SDS011;28216;53.362;-6.288;2022-11-15T15:04:48;7.28;;;1.77;;
42586;SDS011;28216;53.362;-6.288;2022-11-15T15:07:14;12.77;;;2.22;;
42586;SDS011;28216;53.362;-6.288;2022-11-15T15:09:40;10.23;;;2.13;;
42586;SDS011;28216;53.362;-6.288;2022-11-15T15:12:16;8.15;;;1.95;;
42586;SDS011;28216;53.362;-6.288;2022-11-15T15:14:43;11.35;;;2.00;;
42586;SDS011;28216;53.362;-6.288;2022-11-15T15:17:10;6.70;;;1.67;;
42586;SDS011;28216;53.362;-6.288;2022-11-15T15:19:35;7.60;;;1.60;;
42586;SDS011;28216;53.362;-6.288;2022-11-15T15:22:01;9.88;;;1.85;;
42586;SDS011;28216;53.362;-6.288;2022-11-15T15:24:26;8.02;;;2.00;;
42586;SDS011;28216;53.362;-6.288;2022-11-15T15:26:51;9.93;;;2.05;;
42586;SDS011;28216;53.362;-6.288;2022-11-15T15:29:17;7.45;;;2.15;;
42586;SDS011;28216;53.362;-6.288;2022-11-15T15:31:42;9.65;;;2.10;;
42586;SDS011;28216;53.362;-6.288;2022-11-15T15:34:08;9.38;;;1.98;;
42586;SDS011;28216;53.362;-6.288;2022-11-15T15:36:33;14.52;;;2.20;;
42586;SDS011;28216;53.362;-6.288;2022-11-15T15:38:59;7.85;;;1.80;;
42586;SDS011;28216;53.362;-6.288;2022-11-15T15:41:24;7.97;;;2.17;;
42586;SDS011;28216;53.362;-6.288;2022-11-15T15:43:50;14.00;;;3.90;;
42586;SDS011;28216;53.362;-6.288;2022-11-15T15:46:16;15.40;;;3.95;;
42586;SDS011;28216;53.362;-6.288;2022-11-15T15:48:43;9.68;;;3.40;;
42586;SDS011;28216;53.362;-6.288;2022-11-15T15:51:09;12.73;;;3.50;;
42586;SDS011;28216;53.362;-6.288;2022-11-15T15:53:35;12.50;;;4.72;;
42586;SDS011;28216;53.362;-6.288;2022-11-15T15:56:00;17.30;;;5.60;;
42586;SDS011;28216;53.362;-6.288;2022-11-15T15:58:26;16.83;;;7.35;;
42586;SDS011;28216;53.362;-6.288;2022-11-15T16:00:52;16.67;;;7.50;;
42586;SDS011;28216;53.362;-6.288;2022-11-15T16:03:17;15.48;;;6.32;;
42586;SDS011;28216;53.362;-6.288;2022-11-15T16:05:43;11.10;;;3.05;;
42586;SDS011;28216;53.362;-6.288;2022-11-15T16:08:12;16.52;;;2.80;;
42586;SDS011;28216;53.362;-6.288;2022-11-15T16:10:49;13.50;;;3.05;;
42586;SDS011;28216;53.362;-6.288;2022-11-15T16:13:18;13.65;;;3.20;;
42586;SDS011;28216;53.362;-6.288;2022-11-15T16:15:44;13.10;;;4.00;;
42586;SDS011;28216;53.362;-6.288;2022-11-15T16:18:16;13.05;;;3.50;;
42586;SDS011;28216;53.362;-6.288;2022-11-15T16:20:47;11.02;;;4.90;;
42586;SDS011;28216;53.362;-6.288;2022-11-15T16:23:19;17.75;;;5.55;;
42586;SDS011;28216;53.362;-6.288;2022-11-15T16:25:48;13.27;;;4.85;;
42586;SDS011;28216;53.362;-6.288;2022-11-15T16:28:21;19.83;;;5.40;;
42586;SDS011;28216;53.362;-6.288;2022-11-15T16:31:05;20.33;;;9.50;;
42586;SDS011;28216;53.362;-6.288;2022-11-15T16:33:33;16.13;;;5.35;;
42586;SDS011;28216;53.362;-6.288;2022-11-15T16:35:59;24.95;;;12.23;;
42586;SDS011;28216;53.362;-6.288;2022-11-15T16:38:25;46.08;;;24.55;;
42586;SDS011;28216;53.362;-6.288;2022-11-15T16:40:50;21.92;;;12.40;;
42586;SDS011;28216;53.362;-6.288;2022-11-15T16:43:16;20.30;;;9.38;;
42586;SDS011;28216;53.362;-6.288;2022-11-15T16:45:42;21.90;;;9.63;;
42586;SDS011;28216;53.362;-6.288;2022-11-15T16:48:15;19.90;;;7.13;;
42586;SDS011;28216;53.362;-6.288;2022-11-15T16:50:49;15.65;;;5.90;;
42586;SDS011;28216;53.362;-6.288;2022-11-15T16:53:15;16.80;;;6.53;;
42586;SDS011;28216;53.362;-6.288;2022-11-15T16:55:42;18.15;;;6.93;;
42586;SDS011;28216;53.362;-6.288;2022-11-15T16:58:08;18.50;;;7.68;;
42586;SDS011;28216;53.362;-6.288;2022-11-15T17:00:34;16.67;;;6.60;;